Time;durP1;ratioP1;P1;durP2;ratioP2;P2;SDS_P1;SDS_P2;PMS_P1;PMS_P2;Temp;Humidity;BMP_temperature;BMP_pressure;BME280_temperature;BME280_humidity;BME280_pressure;Samples;Min_cycle;Max_cycle;Signal;HPM_P1;HPM_P2
2022/07/14 00:00:09;;;;;;;;;;;;;;;22.34;43.12;100075.19;4340160;33;19996;-80
2022/07/14 00:02:36;;;;;;;;;;;;;;;22.46;42.49;100080.09;4339163;33;20038;-80
2022/07/14 00:05:02;;;;;;;;;;;;;;;22.49;42.78;100085.28;4340595;33;20344;-80
2022/07/14 00:07:29;;;;;;;;;;;;;;;22.23;43.40;100084.25;4340125;33;19995;-79
2022/07/14 00:09:56;;;;;;;;;;;;;;;22.38;42.66;100074.19;4339400;33;20766;-79
2022/07/14 00:12:23;;;;;;;;;;;;;;;22.49;41.73;100082.66;4340422;33;19975;-82
2022/07/14 00:14:49;;;;;;;;;;;;;;;22.58;41.33;100085.03;4336939;32;20002;-80
2022/07/14 00:17:16;;;;;;;;;;;;;;;22.34;41.99;100080.47;4341526;32;20016;-80
2022/07/14 00:19:43;;;;;;;;;;;;;;;22.45;42.07;100083.66;4340516;33;20059;-80
2022/07/14 00:22:09;;;;;;;;;;;;;;;22.51;41.23;100084.34;4339793;33;19999;-79
2022/07/14 00:24:36;;;;;;;;;;;;;;;22.29;42.00;100078.81;4340399;33;20044;-79
2022/07/14 00:27:03;;;;;;;;;;;;;;;22.34;41.74;100075.19;4340483;33;19991;-80
2022/07/14 00:29:30;;;;;;;;;;;;;;;22.44;41.62;100076.66;4340122;33;19983;-79
2022/07/14 00:31:57;;;;;;;;;;;;;;;22.61;41.15;100074.37;4340714;33;19987;-80
2022/07/14 00:34:24;;;;;;;;;;;;;;;22.48;41.61;100083.56;4339986;33;19971;-80
2022/07/14 00:36:50;;;;;;;;;;;;;;;22.55;41.72;100079.84;4319301;32;19988;-81
2022/07/14 00:39:18;;;;;;;;;;;;;;;22.43;42.32;100085.47;4309375;33;20016;-81
2022/07/14 00:41:45;;;;;;;;;;;;;;;22.46;42.37;100085.38;4311134;33;19992;-80
2022/07/14 00:44:12;;;;;;;;;;;;;;;22.57;42.19;100083.31;4310875;33;20024;-81
2022/07/14 00:46:39;;;;;;;;;;;;;;;22.47;42.27;100079.22;4310785;33;19980;-81
2022/07/14 00:49:06;;;;;;;;;;;;;;;22.56;41.75;100081.59;4316801;32;20038;-82
2022/07/14 00:51:33;;;;;;;;;;;;;;;22.32;42.19;100072.59;4316415;32;19976;-80
2022/07/14 00:54:00;;;;;;;;;;;;;;;22.44;41.95;100084.56;4310977;33;19980;-80
2022/07/14 00:56:27;;;;;;;;;;;;;;;22.41;42.52;100071.47;4309800;33;20067;-80
2022/07/14 00:58:54;;;;;;;;;;;;;;;22.34;42.64;100075.19;4310420;33;20008;-81
2022/07/14 01:01:21;;;;;;;;;;;;;;;22.37;42.16;100075.97;4310719;32;19987;-79
2022/07/14 01:03:48;;;;;;;;;;;;;;;22.21;42.80;100075.53;4309528;33;20252;-80
2022/07/14 01:06:16;;;;;;;;;;;;;;;22.36;41.67;100073.38;4308892;33;20004;-80
2022/07/14 01:08:43;;;;;;;;;;;;;;;22.43;41.59;100080.19;4308996;33;19988;-80
2022/07/14 01:11:09;;;;;;;;;;;;;;;22.39;41.97;100078.56;4310776;33;20048;-80
2022/07/14 01:13:36;;;;;;;;;;;;;;;22.26;42.47;100073.63;4308765;33;19984;-80
2022/07/14 01:16:05;;;;;;;;;;;;;;;22.29;42.64;100078.81;4309030;33;20440;-80
2022/07/14 01:18:32;;;;;;;;;;;;;;;22.40;42.42;100085.53;4310566;33;19988;-80
2022/07/14 01:20:59;;;;;;;;;;;;;;;22.34;42.16;100076.06;4310485;33;19972;-80
2022/07/14 01:23:26;;;;;;;;;;;;;;;22.51;42.26;100081.69;4312725;33;20059;-80
2022/07/14 01:25:53;;;;;;;;;;;;;;;22.38;42.30;100079.47;4312525;32;20043;-81
2022/07/14 01:28:20;;;;;;;;;;;;;;;22.42;41.95;100083.75;4312181;33;20023;-80
2022/07/14 01:30:47;;;;;;;;;;;;;;;22.48;41.93;100078.28;4312466;33;20043;-80
2022/07/14 01:33:14;;;;;;;;;;;;;;;22.36;42.47;100076.00;4312363;33;19996;-80
2022/07/14 01:35:42;;;;;;;;;;;;;;;22.41;42.31;100079.38;4315672;32;20404;-80
2022/07/14 01:38:09;;;;;;;;;;;;;;;22.38;42.46;100082.97;4310927;33;20489;-79
2022/07/14 01:40:36;;;;;;;;;;;;;;;22.40;42.65;100080.28;4312228;33;19983;-81
2022/07/14 01:43:03;;;;;;;;;;;;;;;22.28;42.79;100071.81;4312390;33;19984;-81
2022/07/14 01:45:32;;;;;;;;;;;;;;;22.31;42.74;100077.94;4311312;32;20005;-80
2022/07/14 01:47:59;;;;;;;;;;;;;;;22.39;42.74;100079.41;4331614;32;20002;-80
2022/07/14 01:50:26;;;;;;;;;;;;;;;22.44;42.26;100079.28;4327152;33;20389;-80
2022/07/14 01:52:54;;;;;;;;;;;;;;;22.18;43.31;100073.00;4326794;33;19999;-79
2022/07/14 01:55:22;;;;;;;;;;;;;;;22.38;43.03;100076.84;4327210;33;20513;-79
2022/07/14 01:57:48;;;;;;;;;;;;;;;22.10;45.01;100077.56;4327089;33;20003;-81
2022/07/14 02:00:16;;;;;;;;;;;;;;;22.34;43.51;100076.06;4337969;33;19967;-79
2022/07/14 02:02:43;;;;;;;;;;;;;;;22.35;43.72;100071.66;4326697;33;19976;-79
2022/07/14 02:05:11;;;;;;;;;;;;;;;22.41;43.31;100071.47;4325650;32;20009;-79
2022/07/14 02:07:38;;;;;;;;;;;;;;;22.44;43.17;100072.25;4286562;33;786219;-79
2022/07/14 02:12:56;;;;;;;;;;;;;;;22.60;42.73;100077.94;4342032;33;20022;-79
2022/07/14 02:15:23;;;;;;;;;;;;;;;22.55;43.19;100077.19;4341681;33;19991;-79
2022/07/14 02:17:50;;;;;;;;;;;;;;;22.55;42.77;100071.91;4340816;32;19987;-79
2022/07/14 02:20:18;;;;;;;;;;;;;;;22.57;42.59;100070.09;4345686;32;19976;-78
2022/07/14 02:22:46;;;;;;;;;;;;;;;22.62;42.20;100075.25;4341194;33;19991;-79
2022/07/14 02:25:13;;;;;;;;;;;;;;;22.53;42.19;100076.41;4341571;33;19987;-78
2022/07/14 02:27:40;;;;;;;;;;;;;;;22.64;41.73;100063.72;4341543;33;20361;-79
2022/07/14 02:30:07;;;;;;;;;;;;;;;22.59;41.39;100070.94;4341445;32;20940;-78
2022/07/14 02:32:36;;;;;;;;;;;;;;;22.56;41.55;100076.31;4340955;33;20002;-79
2022/07/14 02:35:03;;;;;;;;;;;;;;;22.51;41.98;100078.19;4341592;33;20451;-78
2022/07/14 02:37:30;;;;;;;;;;;;;;;22.51;41.77;100078.19;4341456;32;20038;-80
2022/07/14 02:39:57;;;;;;;;;;;;;;;22.56;41.79;100080.69;4341414;33;19987;-79
2022/07/14 02:42:24;;;;;;;;;;;;;;;22.54;41.80;100082.53;4340152;32;19976;-79
2022/07/14 02:44:51;;;;;;;;;;;;;;;22.55;41.77;100087.75;4341346;33;19983;-80
2022/07/14 02:47:18;;;;;;;;;;;;;;;22.38;42.14;100082.97;4341338;33;20034;-79
2022/07/14 02:49:45;;;;;;;;;;;;;;;22.47;41.91;100089.75;4340932;33;19972;-79
2022/07/14 02:52:12;;;;;;;;;;;;;;;22.41;42.20;100084.66;4341634;33;19987;-80
2022/07/14 02:54:39;;;;;;;;;;;;;;;22.45;42.30;100096.84;4340809;33;19998;-80
2022/07/14 02:57:06;;;;;;;;;;;;;;;22.41;42.32;100092.56;4341716;33;19987;-79
2022/07/14 02:59:33;;;;;;;;;;;;;;;22.35;42.42;100087.47;4341613;33;19987;-80
2022/07/14 03:02:00;;;;;;;;;;;;;;;22.48;42.24;100094.97;4341389;33;20317;-80
2022/07/14 03:04:27;;;;;;;;;;;;;;;22.37;42.53;100085.66;4341403;32;20046;-79
2022/07/14 03:06:55;;;;;;;;;;;;;;;22.37;42.60;100096.22;4341026;33;20006;-81
2022/07/14 03:09:22;;;;;;;;;;;;;;;22.43;42.93;100096.00;4339825;33;20030;-80
2022/07/14 03:11:49;;;;;;;;;;;;;;;22.42;42.96;100094.28;4341420;33;20002;-81
2022/07/14 03:14:16;;;;;;;;;;;;;;;22.29;43.45;100099.91;4312125;32;20369;-80
2022/07/14 03:16:43;;;;;;;;;;;;;;;22.26;43.45;100101.78;4317016;32;20104;-80
2022/07/14 03:19:10;;;;;;;;;;;;;;;22.24;43.82;100096.56;4311792;32;19972;-80
2022/07/14 03:21:37;;;;;;;;;;;;;;;22.34;43.60;100091.03;4311882;33;20299;-80
2022/07/14 03:24:06;;;;;;;;;;;;;;;22.31;43.62;100096.38;4174199;33;5001383;-80
2022/07/14 03:26:33;;;;;;;;;;;;;;;22.36;43.34;100094.47;4341348;33;19991;-80
2022/07/14 03:29:01;;;;;;;;;;;;;;;22.24;43.54;100091.28;4339892;33;19980;-80
2022/07/14 03:31:28;;;;;;;;;;;;;;;22.24;43.69;100091.28;4341018;33;20015;-80
2022/07/14 03:33:56;;;;;;;;;;;;;;;22.34;43.43;100085.75;4352152;32;20017;-80
2022/07/14 03:36:23;;;;;;;;;;;;;;;22.25;44.07;100103.53;4341156;33;20301;-80
2022/07/14 03:38:50;;;;;;;;;;;;;;;22.38;43.69;100096.16;4344488;32;19991;-79
2022/07/14 03:41:19;;;;;;;;;;;;;;;22.38;43.58;100088.25;4341116;33;20043;-80
2022/07/14 03:43:46;;;;;;;;;;;;;;;22.39;43.90;100094.37;4340903;32;19983;-80
2022/07/14 03:46:13;;;;;;;;;;;;;;;22.42;43.81;100095.16;4340859;33;19987;-79
2022/07/14 03:48:41;;;;;;;;;;;;;;;22.38;44.03;100097.94;4341177;33;20325;-79
2022/07/14 03:51:08;;;;;;;;;;;;;;;22.43;44.75;100101.28;4340842;33;19980;-79
2022/07/14 03:53:36;;;;;;;;;;;;;;;22.38;44.94;100108.47;4340807;33;20337;-80
2022/07/14 03:56:04;;;;;;;;;;;;;;;22.26;45.57;100109.69;4038158;32;10004438;-80
2022/07/14 03:58:34;;;;;;;;;;;;;;;22.42;44.98;100105.69;4346633;32;19998;-80
2022/07/14 04:01:02;;;;;;;;;;;;;;;22.48;44.93;100099.41;4340606;33;20052;-79
2022/07/14 04:03:30;;;;;;;;;;;;;;;22.42;45.46;100102.22;4340804;33;19988;-79
2022/07/14 04:05:57;;;;;;;;;;;;;;;22.46;44.95;100095.94;4340600;33;19983;-79
2022/07/14 04:08:24;;;;;;;;;;;;;;;22.49;45.13;100099.38;4340690;33;19998;-80
2022/07/14 04:10:52;;;;;;;;;;;;;;;22.45;45.23;100096.84;4340268;32;20014;-80
2022/07/14 04:13:20;;;;;;;;;;;;;;;22.51;44.30;100094.87;4344672;32;19975;-79
2022/07/14 04:15:46;;;;;;;;;;;;;;;22.60;44.43;100099.03;4340763;32;20007;-79
2022/07/14 04:18:14;;;;;;;;;;;;;;;22.66;44.35;100104.16;4340861;33;20003;-79
2022/07/14 04:20:46;;;;;;;;;;;;;;;22.75;43.94;100098.59;4340972;33;20277;-79
2022/07/14 04:23:13;;;;;;;;;;;;;;;22.69;44.27;100101.41;4340647;33;19984;-79
2022/07/14 04:25:40;;;;;;;;;;;;;;;22.85;44.19;100103.59;4340543;33;20815;-80
2022/07/14 04:28:07;;;;;;;;;;;;;;;22.90;44.30;100096.41;4340324;33;19975;-79
2022/07/14 04:30:34;;;;;;;;;;;;;;;22.95;44.52;100099.81;4322679;32;19972;-80
2022/07/14 04:33:09;;;;;;;;;;;;;;;23.00;43.65;100091.72;4340559;33;20048;-80
2022/07/14 04:35:37;;;;;;;;;;;;;;;23.05;43.18;100093.31;4338088;32;19999;-79
2022/07/14 04:38:04;;;;;;;;;;;;;;;23.12;42.72;100092.22;4339463;33;20044;-77
2022/07/14 04:40:31;;;;;;;;;;;;;;;23.15;42.12;100094.75;4340457;32;20716;-79
2022/07/14 04:42:59;;;;;;;;;;;;;;;23.29;41.91;100089.03;4340809;32;20018;-78
2022/07/14 04:45:26;;;;;;;;;;;;;;;23.42;41.63;100097.41;4340727;33;19996;-80
2022/07/14 04:47:53;;;;;;;;;;;;;;;23.46;41.89;100093.78;4340408;33;19988;-85
2022/07/14 04:53:06;;;;;;;;;;;;;;;23.80;41.22;100090.00;4338621;33;20027;-90
2022/07/14 04:55:33;;;;;;;;;;;;;;;23.67;42.28;100090.44;4338736;33;20039;-91
2022/07/14 04:58:00;;;;;;;;;;;;;;;23.72;42.04;100092.06;4340807;33;20019;-90
2022/07/14 05:00:28;;;;;;;;;;;;;;;23.82;42.11;100093.47;4342112;33;19998;-89
2022/07/14 05:02:54;;;;;;;;;;;;;;;23.86;43.86;100089.81;4345169;32;20027;-86
2022/07/14 05:05:21;;;;;;;;;;;;;;;23.92;43.62;100094.87;4329759;33;20346;-89
2022/07/14 05:07:49;;;;;;;;;;;;;;;24.01;43.39;100088.41;4325120;33;20003;-90
2022/07/14 05:10:18;;;;;;;;;;;;;;;23.93;43.10;100085.16;4326609;33;20074;-88
2022/07/14 05:12:45;;;;;;;;;;;;;;;23.93;42.87;100090.47;4326890;33;20459;-90
2022/07/14 05:15:12;;;;;;;;;;;;;;;24.01;42.39;100089.28;4343833;32;19984;-92
2022/07/14 05:17:39;;;;;;;;;;;;;;;24.14;41.92;100095.00;4322459;33;20357;-89
2022/07/14 05:20:07;;;;;;;;;;;;;;;24.18;41.77;100101.03;4326675;33;19987;-88
2022/07/14 05:22:35;;;;;;;;;;;;;;;24.42;40.94;100099.34;4326243;33;20006;-89
2022/07/14 05:25:04;;;;;;;;;;;;;;;24.47;40.68;100098.22;4325220;33;20046;-91
2022/07/14 05:27:31;;;;;;;;;;;;;;;24.60;40.46;100093.31;4326459;33;19984;-87
2022/07/14 05:29:59;;;;;;;;;;;;;;;24.64;40.07;100094.09;4324681;33;20007;-90
2022/07/14 05:32:26;;;;;;;;;;;;;;;24.83;39.48;100103.06;4343315;32;20377;-89
2022/07/14 05:34:53;;;;;;;;;;;;;;;24.94;38.83;100098.19;4326457;33;20000;-89
2022/07/14 05:37:21;;;;;;;;;;;;;;;25.05;38.08;100096.00;4324270;33;20010;-91
2022/07/14 05:39:47;;;;;;;;;;;;;;;25.04;37.84;100094.25;4326574;33;19988;-90
2022/07/14 05:42:14;;;;;;;;;;;;;;;25.15;38.41;100085.09;4324637;33;19998;-90
2022/07/14 05:44:41;;;;;;;;;;;;;;;25.28;37.91;100086.31;4327107;33;20030;-90
2022/07/14 05:47:08;;;;;;;;;;;;;;;25.39;37.39;100084.06;4326830;33;20045;-87
2022/07/14 05:49:39;;;;;;;;;;;;;;;25.22;37.93;100086.56;4326857;33;19998;-85
2022/07/14 05:52:06;;;;;;;;;;;;;;;25.46;37.42;100085.56;4325363;33;20043;-88
2022/07/14 05:54:33;;;;;;;;;;;;;;;25.76;36.73;100087.84;4327059;33;19975;-85
2022/07/14 05:56:59;;;;;;;;;;;;;;;25.95;35.99;100080.00;4324816;32;20370;-85
2022/07/14 05:59:26;;;;;;;;;;;;;;;25.87;36.43;100071.50;4305007;32;19984;-85
2022/07/14 06:02:10;;;;;;;;;;;;;;;25.81;36.94;100074.41;4312423;33;20068;-87
2022/07/14 06:04:38;;;;;;;;;;;;;;;26.04;36.03;100076.06;4311954;33;20020;-86
2022/07/14 06:07:06;;;;;;;;;;;;;;;26.10;36.21;100074.03;4322509;33;20015;-86
2022/07/14 06:09:36;;;;;;;;;;;;;;;26.28;35.55;100069.66;4321959;33;19980;-87
2022/07/14 06:12:05;;;;;;;;;;;;;;;26.24;35.54;100061.91;4312433;33;19980;-87
2022/07/14 06:14:34;;;;;;;;;;;;;;;26.26;36.42;100070.66;4311129;33;20015;-84
2022/07/14 06:17:01;;;;;;;;;;;;;;;26.30;36.46;100066.97;4310889;32;20002;-87
2022/07/14 06:19:28;;;;;;;;;;;;;;;26.12;37.73;100069.50;4312288;33;20040;-87
2022/07/14 06:21:55;;;;;;;;;;;;;;;26.32;37.28;100065.06;4310337;32;20417;-85
2022/07/14 06:24:22;;;;;;;;;;;;;;;26.79;36.02;100065.56;4311842;33;19999;-87
2022/07/14 06:26:50;;;;;;;;;;;;;;;26.97;35.42;100068.28;4335065;33;19984;-88
2022/07/14 06:29:17;;;;;;;;;;;;;;;26.90;35.75;100060.63;4311912;33;20333;-86
2022/07/14 06:31:44;;;;;;;;;;;;;;;27.19;33.93;100069.00;4311741;33;19980;-87
2022/07/14 06:34:11;;;;;;;;;;;;;;;27.04;35.90;100069.72;4320979;32;19987;-86
2022/07/14 06:36:40;;;;;;;;;;;;;;;27.31;35.54;100072.84;4325689;33;20404;-87
2022/07/14 06:39:07;;;;;;;;;;;;;;;27.75;33.29;100062.62;4325710;33;19968;-88
2022/07/14 06:41:34;;;;;;;;;;;;;;;28.01;33.52;100057.78;4326797;33;20047;-87
2022/07/14 06:44:01;;;;;;;;;;;;;;;28.46;32.53;100058.94;4326132;33;19988;-86
2022/07/14 06:46:34;;;;;;;;;;;;;;;28.85;31.05;100052.38;4321799;32;19992;-85
2022/07/14 06:49:01;;;;;;;;;;;;;;;29.37;28.31;100057.41;4326290;33;19976;-85
2022/07/14 06:51:28;;;;;;;;;;;;;;;29.55;28.39;100051.00;4324540;33;20027;-87
2022/07/14 06:53:55;;;;;;;;;;;;;;;29.64;30.09;100055.81;4326408;33;19980;-85
2022/07/14 06:56:23;;;;;;;;;;;;;;;29.84;28.75;100053.75;4324766;32;20372;-86
2022/07/14 06:58:49;;;;;;;;;;;;;;;30.11;27.24;100054.72;4325924;33;20005;-84
2022/07/14 07:01:17;;;;;;;;;;;;;;;30.60;26.02;100056.19;4325990;33;20091;-84
2022/07/14 07:03:45;;;;;;;;;;;;;;;30.73;25.71;100056.28;4326068;33;19984;-86
2022/07/14 07:08:59;;;;;;;;;;;;;;;30.97;25.05;100057.37;4326395;32;20318;-86
2022/07/14 07:11:27;;;;;;;;;;;;;;;31.02;25.67;100063.28;4325529;33;20014;-82
2022/07/14 07:13:53;;;;;;;;;;;;;;;31.07;24.87;100059.44;4325541;33;19987;-84
2022/07/14 07:16:21;;;;;;;;;;;;;;;30.35;27.81;100057.72;4326041;33;19998;-84
2022/07/14 07:18:48;;;;;;;;;;;;;;;30.82;25.24;100050.34;4325285;33;19991;-84
2022/07/14 07:21:18;;;;;;;;;;;;;;;30.75;25.72;100051.66;4326038;33;19980;-83
2022/07/14 07:23:46;;;;;;;;;;;;;;;31.08;25.01;100045.97;4324811;33;20340;-84
2022/07/14 07:26:13;;;;;;;;;;;;;;;31.08;26.25;100045.97;4324729;33;20087;-83
2022/07/14 07:28:40;;;;;;;;;;;;;;;31.32;26.32;100043.47;4324351;32;20052;-83
2022/07/14 07:31:07;;;;;;;;;;;;;;;31.49;26.37;100037.00;4322980;33;20326;-83
2022/07/14 07:33:35;;;;;;;;;;;;;;;32.12;24.35;100043.41;4323270;32;20368;-87
2022/07/14 07:36:01;;;;;;;;;;;;;;;32.39;23.68;100037.94;4323831;32;20294;-85
2022/07/14 07:38:28;;;;;;;;;;;;;;;32.45;23.90;100044.69;4322810;32;20023;-83
2022/07/14 07:40:55;;;;;;;;;;;;;;;32.77;23.80;100029.84;4322954;33;20069;-85
2022/07/14 07:43:22;;;;;;;;;;;;;;;32.93;23.46;100034.03;4322638;32;20015;-84
2022/07/14 07:45:49;;;;;;;;;;;;;;;32.95;23.88;100026.75;4323174;32;19984;-84
2022/07/14 07:48:16;;;;;;;;;;;;;;;32.99;25.39;100028.25;4323284;32;20043;-84
2022/07/14 07:50:43;;;;;;;;;;;;;;;33.19;23.69;100024.94;4323927;32;20067;-84
2022/07/14 07:53:11;;;;;;;;;;;;;;;33.31;24.94;100029.41;4323351;33;19988;-83
2022/07/14 07:55:38;;;;;;;;;;;;;;;33.46;23.13;100031.88;4324109;32;19988;-85
2022/07/14 07:58:05;;;;;;;;;;;;;;;33.63;24.22;100028.78;4323096;33;20366;-85
2022/07/14 08:00:33;;;;;;;;;;;;;;;33.42;24.22;100019.66;4323462;33;19995;-84
2022/07/14 08:03:01;;;;;;;;;;;;;;;33.92;22.46;100022.97;4323308;33;20010;-83
2022/07/14 08:05:29;;;;;;;;;;;;;;;34.17;22.65;100028.13;4321796;33;20039;-84
2022/07/14 08:08:16;;;;;;;;;;;;;;;34.21;22.11;100024.25;4310582;33;20023;-85
2022/07/14 08:10:43;;;;;;;;;;;;;;;34.05;23.14;100015.72;4320795;32;20370;-85
2022/07/14 08:13:10;;;;;;;;;;;;;;;34.52;20.82;100026.28;4324795;33;20321;-85
2022/07/14 08:15:37;;;;;;;;;;;;;;;34.58;21.65;100015.94;4325906;33;20000;-90
2022/07/14 08:18:04;;;;;;;;;;;;;;;34.61;22.42;100010.31;4324810;33;19992;-89
2022/07/14 08:20:32;;;;;;;;;;;;;;;34.86;21.07;100013.66;4324513;33;20424;-91
2022/07/14 08:22:59;;;;;;;;;;;;;;;35.17;20.46;100012.00;4325434;33;20365;-87
2022/07/14 08:25:26;;;;;;;;;;;;;;;35.07;21.19;100016.44;4325980;33;19983;-90
2022/07/14 08:27:53;;;;;;;;;;;;;;;35.20;21.43;100010.88;4325729;33;20007;-89
2022/07/14 08:30:20;;;;;;;;;;;;;;;34.62;21.36;100012.03;4324496;33;20028;-89
2022/07/14 08:32:49;;;;;;;;;;;;;;;34.95;20.00;100007.53;4325867;33;20009;-89
2022/07/14 08:35:17;;;;;;;;;;;;;;;35.35;19.85;99998.81;4325915;33;20402;-89
2022/07/14 08:37:44;;;;;;;;;;;;;;;35.32;21.45;100009.84;4325513;33;20019;-89
2022/07/14 08:40:12;;;;;;;;;;;;;;;35.02;20.61;100003.34;4325750;33;19992;-89
2022/07/14 08:42:44;;;;;;;;;;;;;;;34.90;20.89;99998.97;4325438;33;20023;-87
2022/07/14 08:45:12;;;;;;;;;;;;;;;34.99;21.62;99997.38;4325259;33;20003;-89
2022/07/14 08:47:39;;;;;;;;;;;;;;;35.08;20.97;99997.47;4322811;32;19990;-88
2022/07/14 08:50:07;;;;;;;;;;;;;;;35.40;17.92;99996.59;4309020;33;20047;-89
2022/07/14 08:52:36;;;;;;;;;;;;;;;34.94;19.08;99995.03;4310872;33;20368;-87
2022/07/14 08:55:06;;;;;;;;;;;;;;;35.67;18.20;99990.69;4310995;33;20006;-88
2022/07/14 08:57:32;;;;;;;;;;;;;;;35.69;19.76;99995.97;4310592;33;20068;-89
2022/07/14 09:00:00;;;;;;;;;;;;;;;35.41;19.99;99992.91;4310869;33;20001;-90
2022/07/14 09:02:26;;;;;;;;;;;;;;;36.34;17.03;99986.63;4309660;33;20366;-89
2022/07/14 09:04:54;;;;;;;;;;;;;;;36.23;18.79;99978.66;4310536;33;19998;-89
2022/07/14 09:07:31;;;;;;;;;;;;;;;36.38;17.71;99988.06;4310550;33;19985;-90
2022/07/14 09:10:04;;;;;;;;;;;;;;;36.42;16.85;99984.09;4310874;33;19984;-90
2022/07/14 09:12:31;;;;;;;;;;;;;;;36.09;18.13;99978.03;4310630;33;20024;-89
2022/07/14 09:17:50;;;;;;;;;;;;;;;36.05;20.09;99970.34;4310515;33;19980;-90
2022/07/14 09:20:18;;;;;;;;;;;;;;;36.52;18.27;99968.81;4310314;33;19992;-90
2022/07/14 09:22:45;;;;;;;;;;;;;;;35.98;18.12;99961.94;4310551;33;19980;-91
2022/07/14 09:25:15;;;;;;;;;;;;;;;36.87;17.73;99962.06;4310536;33;20080;-90
2022/07/14 09:27:42;;;;;;;;;;;;;;;36.72;16.68;99952.66;4310342;33;20321;-91
2022/07/14 09:30:10;;;;;;;;;;;;;;;36.33;18.16;99955.28;4310432;33;19980;-91
2022/07/14 09:32:58;;;;;;;;;;;;;;;36.37;18.79;99959.38;4310280;33;20007;-91
2022/07/14 09:35:26;;;;;;;;;;;;;;;36.21;19.20;99949.13;4310315;33;19999;-89
2022/07/14 09:37:54;;;;;;;;;;;;;;;36.91;17.32;99947.28;4310654;33;20012;-89
2022/07/14 09:40:22;;;;;;;;;;;;;;;36.91;18.04;99958.06;4308906;33;19984;-89
2022/07/14 09:42:59;;;;;;;;;;;;;;;36.55;18.96;99952.38;4309943;33;19988;-90
2022/07/14 09:45:39;;;;;;;;;;;;;;;36.05;18.34;99948.78;4310408;33;20004;-91
2022/07/14 09:48:08;;;;;;;;;;;;;;;36.18;18.43;99944.00;4312330;33;20019;-92
2022/07/14 09:50:43;;;;;;;;;;;;;;;36.85;16.67;99953.22;4310872;33;20023;-91
2022/07/14 09:53:16;;;;;;;;;;;;;;;36.84;16.41;99940.75;4312113;33;20297;-92
2022/07/14 09:55:48;;;;;;;;;;;;;;;36.83;17.11;99944.44;4312337;33;20000;-90
2022/07/14 09:58:16;;;;;;;;;;;;;;;37.18;16.10;99945.75;4312471;33;20742;-91
2022/07/14 10:00:43;;;;;;;;;;;;;;;37.09;16.19;99933.09;4312269;33;20047;-90
2022/07/14 10:03:10;;;;;;;;;;;;;;;37.33;15.65;99936.19;4317745;33;20342;-89
2022/07/14 10:05:38;;;;;;;;;;;;;;;37.43;15.50;99942.44;4323204;33;20490;-88
2022/07/14 10:08:05;;;;;;;;;;;;;;;37.18;15.86;99943.03;4322533;33;20011;-89
2022/07/14 10:10:32;;;;;;;;;;;;;;;36.59;17.48;99931.34;4312236;33;19976;-87
2022/07/14 10:12:59;;;;;;;;;;;;;;;36.94;18.54;99936.19;4312085;33;20031;-88
2022/07/14 10:15:34;;;;;;;;;;;;;;;36.80;18.20;99931.25;4312220;33;19999;-90
2022/07/14 10:18:02;;;;;;;;;;;;;;;36.49;19.13;99925.91;4312882;33;20003;-91
2022/07/14 10:20:29;;;;;;;;;;;;;;;36.93;17.79;99912.91;4312378;33;20044;-91
2022/07/14 10:22:57;;;;;;;;;;;;;;;36.89;17.15;99916.91;4322770;33;19987;-91
2022/07/14 10:25:25;;;;;;;;;;;;;;;37.00;16.63;99914.06;4322637;33;20337;-90
2022/07/14 10:27:53;;;;;;;;;;;;;;;37.20;15.61;99914.03;4312077;33;20031;-90
2022/07/14 10:30:21;;;;;;;;;;;;;;;37.41;16.26;99914.72;4322673;33;19985;-89
2022/07/14 10:32:54;;;;;;;;;;;;;;;37.73;15.55;99908.09;4322515;33;19988;-87
2022/07/14 10:35:40;;;;;;;;;;;;;;;37.96;15.27;99899.63;4312156;33;20401;-90
2022/07/14 10:38:09;;;;;;;;;;;;;;;37.92;14.55;99899.94;4312071;33;19990;-88
2022/07/14 10:40:45;;;;;;;;;;;;;;;37.78;14.89;99897.69;4310884;33;19996;-90
2022/07/14 10:43:17;;;;;;;;;;;;;;;37.80;14.57;99890.28;4312578;33;19992;-93
2022/07/14 10:45:47;;;;;;;;;;;;;;;37.65;15.41;99889.94;4322769;33;20346;-92
2022/07/14 10:48:27;;;;;;;;;;;;;;;37.52;15.95;99891.25;4310519;33;19980;-89
2022/07/14 10:51:10;;;;;;;;;;;;;;;37.46;16.30;99888.16;4311920;33;19996;-91
2022/07/14 10:53:58;;;;;;;;;;;;;;;37.09;17.34;99884.53;4309806;33;20867;-91
2022/07/14 10:56:45;;;;;;;;;;;;;;;36.81;16.50;99876.28;4297047;33;19984;-89
2022/07/14 10:59:28;;;;;;;;;;;;;;;36.85;18.68;99879.53;4301468;33;19972;-87
2022/07/14 11:02:20;;;;;;;;;;;;;;;36.93;17.77;99875.12;4311423;33;20496;-87
2022/07/14 11:05:02;;;;;;;;;;;;;;;37.25;14.96;99873.97;4323552;33;20001;-88
2022/07/14 11:07:48;;;;;;;;;;;;;;;36.41;17.60;99871.84;4326672;33;20767;-90
2022/07/14 11:10:18;;;;;;;;;;;;;;;36.81;16.26;99870.87;4327079;33;20019;-89
2022/07/14 11:13:03;;;;;;;;;;;;;;;36.76;17.22;99862.38;4326412;33;19972;-90
2022/07/14 11:15:38;;;;;;;;;;;;;;;37.00;15.72;99854.69;4325756;33;19988;-92
2022/07/14 11:18:24;;;;;;;;;;;;;;;37.59;14.73;99859.94;4323126;33;19998;-89
2022/07/14 11:20:55;;;;;;;;;;;;;;;37.51;14.65;99859.84;4320296;33;20040;-88
2022/07/14 11:23:24;;;;;;;;;;;;;;;37.07;14.42;99854.13;4321210;33;19998;-90
2022/07/14 11:25:51;;;;;;;;;;;;;;;36.98;15.46;99851.31;4322994;33;20018;-86
2022/07/14 11:28:34;;;;;;;;;;;;;;;37.23;14.60;99843.56;4309758;33;19991;-85
2022/07/14 11:31:07;;;;;;;;;;;;;;;37.23;14.81;99843.56;4320165;33;20027;-88
2022/07/14 11:33:34;;;;;;;;;;;;;;;37.32;15.67;99845.38;4019220;32;10000930;-85
2022/07/14 11:36:20;;;;;;;;;;;;;;;37.30;15.39;99844.66;4325050;33;20558;-88
2022/07/14 11:39:16;;;;;;;;;;;;;;;37.54;14.04;99835.25;4326032;33;19996;-88
2022/07/14 11:41:44;;;;;;;;;;;;;;;37.43;15.18;99839.81;4326628;33;20385;-87
2022/07/14 11:44:30;;;;;;;;;;;;;;;37.49;14.90;99826.72;4326190;33;20023;-88
2022/07/14 11:47:00;;;;;;;;;;;;;;;37.70;14.41;99830.88;4323832;32;20031;-88
2022/07/14 11:49:27;;;;;;;;;;;;;;;37.54;15.07;99825.28;4324782;33;20027;-88
2022/07/14 11:51:54;;;;;;;;;;;;;;;37.20;16.04;99827.66;4324832;33;20781;-88
2022/07/14 11:54:21;;;;;;;;;;;;;;;37.59;14.35;99828.41;4324143;33;20274;-87
2022/07/14 11:56:48;;;;;;;;;;;;;;;37.60;13.61;99823.84;4325803;33;20325;-88
2022/07/14 11:59:19;;;;;;;;;;;;;;;37.24;14.40;99829.06;4324157;33;19996;-89
2022/07/14 12:01:45;;;;;;;;;;;;;;;37.12;14.95;99819.44;4324649;33;20070;-88
2022/07/14 12:04:22;;;;;;;;;;;;;;;36.93;15.88;99820.31;4324700;33;19987;-91
2022/07/14 12:06:49;;;;;;;;;;;;;;;37.05;16.02;99807.50;4322069;33;20044;-89
2022/07/14 12:09:26;;;;;;;;;;;;;;;37.29;17.91;99815.97;4324485;33;20043;-89
2022/07/14 12:12:04;;;;;;;;;;;;;;;36.54;17.48;99805.03;4323099;33;20002;-89
2022/07/14 12:14:32;;;;;;;;;;;;;;;37.31;14.34;99803.19;4339372;32;20369;-89
2022/07/14 12:17:00;;;;;;;;;;;;;;;37.51;14.42;99797.72;4324823;33;20042;-90
2022/07/14 12:19:28;;;;;;;;;;;;;;;37.41;14.38;99798.56;4324646;33;20050;-90
2022/07/14 12:21:59;;;;;;;;;;;;;;;37.44;14.65;99798.28;4323052;33;19988;-90
2022/07/14 12:24:26;;;;;;;;;;;;;;;37.48;14.80;99798.88;4323261;33;20006;-91
2022/07/14 12:27:00;;;;;;;;;;;;;;;37.50;15.44;99801.44;4341376;32;20056;-89
2022/07/14 12:29:28;;;;;;;;;;;;;;;37.65;13.93;99797.19;4324527;33;19980;-88
2022/07/14 12:31:56;;;;;;;;;;;;;;;37.57;14.96;99791.72;4323812;33;19995;-88
2022/07/14 12:34:27;;;;;;;;;;;;;;;37.32;15.83;99787.81;4322992;33;19975;-91
2022/07/14 12:36:57;;;;;;;;;;;;;;;37.28;16.23;99787.28;4322585;32;19988;-88
2022/07/14 12:39:24;;;;;;;;;;;;;;;37.67;14.08;99792.50;4324306;32;20059;-87
2022/07/14 12:41:51;;;;;;;;;;;;;;;37.77;13.61;99787.91;4323094;33;20010;-88
2022/07/14 12:44:18;;;;;;;;;;;;;;;37.67;14.80;99782.56;4323879;33;20657;-89
2022/07/14 12:46:45;;;;;;;;;;;;;;;37.76;13.38;99780.81;4324367;33;19995;-88
2022/07/14 12:49:15;;;;;;;;;;;;;;;37.63;14.99;99774.91;4322180;33;20047;-89
2022/07/14 12:51:43;;;;;;;;;;;;;;;37.77;13.10;99766.28;4322685;33;20047;-89
2022/07/14 12:54:17;;;;;;;;;;;;;;;37.74;13.69;99766.59;4322861;33;20332;-87
2022/07/14 12:57:04;;;;;;;;;;;;;;;37.88;14.57;99767.94;4323896;33;20055;-90
2022/07/14 12:59:35;;;;;;;;;;;;;;;38.09;13.32;99763.09;4324014;33;19994;-87